Time;durP1;ratioP1;P1;durP2;ratioP2;P2;SDS_P1;SDS_P2;PMS_P1;PMS_P2;Temp;Humidity;BMP_temperature;BMP_pressure;BME280_temperature;BME280_humidity;BME280_pressure;Samples;Min_cycle;Max_cycle;Signal;HPM_P1;HPM_P2
2023/03/09 00:01:40;;;;;;;10.87;6.60;;;;;;;-145.03;100.00;76867.25;5067556;28;20226;-74
2023/03/09 00:04:10;;;;;;;11.73;6.60;;;;;;;-145.03;100.00;76859.25;5069607;28;20194;-74
2023/03/09 00:06:36;;;;;;;13.77;6.90;;;;;;;-145.03;100.00;76857.25;5066017;28;20336;-74
2023/03/09 00:09:04;;;;;;;13.93;7.40;;;;;;;-145.03;100.00;76859.25;5060232;28;20196;-74
2023/03/09 00:11:32;;;;;;;12.43;7.43;;;;;;;-145.03;100.00;76853.28;5076092;28;20198;-74
2023/03/09 00:13:59;;;;;;;12.40;7.07;;;;;;;-145.03;100.00;76847.28;5069890;28;20231;-74
2023/03/09 00:16:27;;;;;;;13.10;7.63;;;;;;;-145.03;100.00;76847.28;5067326;28;20278;-73
2023/03/09 00:18:56;;;;;;;15.37;7.17;;;;;;;-145.03;100.00;76841.28;5070854;28;20225;-74
2023/03/09 00:21:36;;;;;;;13.80;7.90;;;;;;;-145.03;100.00;76833.31;5082988;28;20202;-74
2023/03/09 00:24:04;;;;;;;15.30;8.43;;;;;;;-145.03;100.00;76825.31;5066755;28;20195;-75
2023/03/09 00:26:34;;;;;;;12.47;7.57;;;;;;;-145.03;100.00;76829.31;5083986;28;20272;-75
2023/03/09 00:29:00;;;;;;;14.73;8.23;;;;;;;-145.03;100.00;76833.31;5070580;28;20195;-74
2023/03/09 00:31:27;;;;;;;15.17;8.60;;;;;;;-145.03;100.00;76841.28;5069323;28;20203;-74
2023/03/09 00:33:56;;;;;;;14.07;8.20;;;;;;;-145.03;100.00;76833.31;5067097;28;20204;-75
2023/03/09 00:36:23;;;;;;;15.00;7.93;;;;;;;-145.03;100.00;76829.31;5066716;28;20637;-74
2023/03/09 00:38:53;;;;;;;17.90;8.63;;;;;;;-145.03;100.00;76831.31;5070054;28;20213;-74
2023/03/09 00:41:21;;;;;;;14.37;8.13;;;;;;;-145.03;100.00;76831.31;5069697;28;20199;-75
2023/03/09 00:43:50;;;;;;;14.87;8.73;;;;;;;-145.03;100.00;76833.31;5066918;28;20195;-74
2023/03/09 00:46:17;;;;;;;15.80;8.07;;;;;;;-145.03;100.00;76827.31;5060286;28;20219;-75
2023/03/09 00:48:43;;;;;;;15.43;8.67;;;;;;;-145.03;100.00;76827.31;5071529;28;20270;-75
2023/03/09 00:51:11;;;;;;;14.13;7.90;;;;;;;-145.03;100.00;76831.31;5067780;28;20236;-74
2023/03/09 00:53:38;;;;;;;14.33;7.73;;;;;;;-145.03;100.00;76827.31;5066912;28;20301;-74
2023/03/09 00:56:09;;;;;;;17.10;8.43;;;;;;;-145.03;100.00;76821.34;5076017;22;20231;-73
2023/03/09 00:58:35;;;;;;;15.73;8.07;;;;;;;-145.03;100.00;76823.31;5008521;28;20196;-73
2023/03/09 01:01:07;;;;;;;14.90;7.80;;;;;;;-145.03;100.00;76829.31;5026876;28;20669;-73
2023/03/09 01:03:33;;;;;;;16.07;8.63;;;;;;;-145.03;100.00;76827.31;5010931;28;20194;-73
2023/03/09 01:06:01;;;;;;;18.77;9.00;;;;;;;-145.03;100.00;76821.34;5007642;28;20196;-73
2023/03/09 01:08:27;;;;;;;15.07;8.87;;;;;;;-145.03;100.00;76819.34;4987233;28;20219;-73
2023/03/09 01:10:54;;;;;;;15.50;8.17;;;;;;;-145.03;100.00;76823.31;4988770;28;20193;-73
2023/03/09 01:13:20;;;;;;;15.93;9.00;;;;;;;-145.03;100.00;76819.34;5008378;28;20267;-73
2023/03/09 01:15:47;;;;;;;16.73;9.00;;;;;;;-145.03;100.00;76815.34;4993472;28;20222;-73
2023/03/09 01:18:14;;;;;;;15.13;9.03;;;;;;;-145.03;100.00;76811.34;5002290;28;20220;-73
2023/03/09 01:20:41;;;;;;;15.83;8.30;;;;;;;-145.03;100.00;76811.34;4987564;28;20195;-73
2023/03/09 01:23:07;;;;;;;17.20;9.30;;;;;;;-145.03;100.00;76805.38;4983474;28;20260;-73
2023/03/09 01:25:34;;;;;;;17.23;9.13;;;;;;;-145.03;100.00;76797.38;4990833;28;20697;-73
2023/03/09 01:28:00;;;;;;;16.80;8.90;;;;;;;-145.03;100.00;76791.38;4992160;28;20222;-73
2023/03/09 01:30:28;;;;;;;16.17;9.00;;;;;;;-145.03;100.00;76785.41;4990438;28;20197;-73
2023/03/09 01:32:54;;;;;;;16.07;8.37;;;;;;;-145.03;100.00;76793.38;4999433;28;20723;-73
2023/03/09 01:35:22;;;;;;;16.40;9.20;;;;;;;-145.03;100.00;76787.41;5005127;28;20634;-73
2023/03/09 01:37:49;;;;;;;15.13;8.57;;;;;;;-145.03;100.00;76785.41;4987844;28;20236;-72
2023/03/09 01:40:19;;;;;;;16.53;9.33;;;;;;;-145.03;100.00;76781.41;5003219;28;20208;-74
2023/03/09 01:42:53;;;;;;;15.47;8.10;;;;;;;-145.03;100.00;76771.44;4996150;28;20207;-73
2023/03/09 01:45:57;;;;;;;15.90;8.20;;;;;;;-145.03;100.00;76781.41;5005352;28;20625;-73
2023/03/09 01:48:24;;;;;;;17.03;9.07;;;;;;;-145.03;100.00;76789.41;4990986;28;20629;-73
2023/03/09 01:50:51;;;;;;;19.80;9.10;;;;;;;-145.03;100.00;76789.41;4986699;28;20200;-73
2023/03/09 01:53:18;;;;;;;18.10;9.93;;;;;;;-145.03;100.00;76783.41;4989458;28;20316;-74
2023/03/09 01:55:49;;;;;;;20.13;9.63;;;;;;;-145.03;100.00;76779.41;4990973;28;20301;-74
2023/03/09 01:58:21;;;;;;;18.67;9.33;;;;;;;-145.03;100.00;76785.41;5003273;28;20215;-72
2023/03/09 02:00:51;;;;;;;18.60;9.50;;;;;;;-145.03;100.00;76779.41;4993555;28;20191;-73
2023/03/09 02:03:22;;;;;;;18.50;9.67;;;;;;;-145.03;100.00;76783.41;4989898;28;20188;-73
2023/03/09 02:05:55;;;;;;;18.67;9.40;;;;;;;-145.03;100.00;76787.41;4988057;28;20288;-73
2023/03/09 02:08:22;;;;;;;17.97;9.20;;;;;;;-145.03;100.00;76787.41;4983858;28;20692;-73
2023/03/09 02:10:55;;;;;;;17.17;9.50;;;;;;;-145.03;100.00;76785.41;4986964;28;20280;-73
2023/03/09 02:13:26;;;;;;;15.90;9.13;;;;;;;-145.03;100.00;76787.41;4984848;28;20221;-73
2023/03/09 02:15:53;;;;;;;16.77;9.17;;;;;;;-145.03;100.00;76779.41;4991001;28;20564;-73
2023/03/09 02:18:20;;;;;;;19.10;10.27;;;;;;;-145.03;100.00;76775.41;4988848;28;20307;-74
2023/03/09 02:20:56;;;;;;;19.93;10.27;;;;;;;-145.03;100.00;76771.44;5005330;28;20268;-73
2023/03/09 02:23:31;;;;;;;18.93;10.50;;;;;;;-145.03;100.00;76775.41;4986533;28;20681;-72
2023/03/09 02:26:05;;;;;;;19.47;9.83;;;;;;;-145.03;100.00;76771.44;4990111;28;20660;-73
2023/03/09 02:28:34;;;;;;;16.77;8.67;;;;;;;-145.03;100.00;76773.44;5003537;28;20204;-73
2023/03/09 02:31:02;;;;;;;17.33;9.63;;;;;;;-145.03;100.00;76767.44;4988213;28;20259;-73
2023/03/09 02:33:30;;;;;;;15.07;8.57;;;;;;;-145.03;100.00;76765.44;4992859;28;20288;-73
2023/03/09 02:36:01;;;;;;;15.03;8.37;;;;;;;-145.03;100.00;76773.44;4991419;28;20201;-73
2023/03/09 02:38:32;;;;;;;16.10;8.47;;;;;;;-145.03;100.00;76781.41;5009488;28;20247;-73
2023/03/09 02:41:00;;;;;;;16.03;8.93;;;;;;;-145.03;100.00;76773.44;4993345;28;20596;-72
2023/03/09 02:43:31;;;;;;;17.60;8.33;;;;;;;-145.03;100.00;76777.41;4992179;28;20228;-73
2023/03/09 02:45:59;;;;;;;14.37;8.20;;;;;;;-145.03;100.00;76769.44;5011289;28;20751;-73
2023/03/09 02:48:26;;;;;;;16.53;9.37;;;;;;;-145.03;100.00;76769.44;4995753;28;20201;-73
2023/03/09 02:50:52;;;;;;;14.83;8.43;;;;;;;-145.03;100.00;76769.44;5008938;28;20196;-73
2023/03/09 02:53:18;;;;;;;13.97;7.83;;;;;;;-145.03;100.00;76767.44;4993756;28;20213;-73
2023/03/09 02:55:45;;;;;;;16.27;8.93;;;;;;;-145.03;100.00;76773.44;4991736;28;20287;-73
2023/03/09 02:58:12;;;;;;;15.40;8.90;;;;;;;-145.03;100.00;76767.44;4994474;28;20227;-73
2023/03/09 03:00:40;;;;;;;18.07;9.40;;;;;;;-145.03;100.00;76763.44;4989283;28;20208;-73
2023/03/09 03:03:09;;;;;;;16.27;9.33;;;;;;;-145.03;100.00;76763.44;4996034;28;20902;-73
2023/03/09 03:05:35;;;;;;;15.17;9.47;;;;;;;-145.03;100.00;76759.44;4991358;28;20202;-73
2023/03/09 03:08:02;;;;;;;15.13;9.33;;;;;;;-145.03;100.00;76765.44;4990719;28;20221;-73
2023/03/09 03:10:29;;;;;;;16.63;9.07;;;;;;;-145.03;100.00;76765.44;4991914;28;20196;-73
2023/03/09 03:12:55;;;;;;;13.80;8.50;;;;;;;-145.03;100.00;76761.44;5008654;28;20762;-73
2023/03/09 03:15:22;;;;;;;15.07;8.73;;;;;;;-145.03;100.00;76769.44;5008058;28;20221;-73
2023/03/09 03:17:49;;;;;;;16.43;9.47;;;;;;;-145.03;100.00;76763.44;5004807;28;20225;-73
2023/03/09 03:20:17;;;;;;;15.27;8.43;;;;;;;-145.03;100.00;76765.44;4994177;28;20680;-73
2023/03/09 03:22:47;;;;;;;17.10;8.57;;;;;;;-145.03;100.00;76759.44;4992777;28;20209;-73
2023/03/09 03:25:16;;;;;;;16.60;8.97;;;;;;;-145.03;100.00;76759.44;5004645;28;20193;-72
2023/03/09 03:27:45;;;;;;;14.17;8.67;;;;;;;-145.03;100.00;76761.44;4990675;28;20227;-73
2023/03/09 03:30:14;;;;;;;16.43;8.30;;;;;;;-145.03;100.00;76755.47;5006352;28;20189;-73
2023/03/09 03:32:42;;;;;;;14.13;7.57;;;;;;;-145.03;100.00;76753.47;5009817;28;20573;-73
2023/03/09 03:35:11;;;;;;;16.77;9.13;;;;;;;-145.03;100.00;76749.47;4990986;28;20215;-73
2023/03/09 03:37:42;;;;;;;19.00;7.97;;;;;;;-145.03;100.00;76749.47;4993093;28;20656;-72
2023/03/09 03:40:11;;;;;;;13.90;8.43;;;;;;;-145.03;100.00;76749.47;4995946;28;20470;-73
2023/03/09 03:42:40;;;;;;;14.13;7.97;;;;;;;-145.03;100.00;76747.47;4992364;28;20278;-73
2023/03/09 03:45:09;;;;;;;15.63;7.20;;;;;;;-145.03;100.00;76745.47;4987535;28;20532;-73
2023/03/09 03:47:36;;;;;;;14.60;8.07;;;;;;;-145.03;100.00;76743.47;4990569;28;20319;-73
2023/03/09 03:50:05;;;;;;;15.80;8.10;;;;;;;-145.03;100.00;76751.47;4995367;28;20581;-73
2023/03/09 03:52:35;;;;;;;13.10;7.90;;;;;;;-145.03;100.00;76759.44;4988979;28;20200;-73
2023/03/09 03:55:04;;;;;;;12.73;7.10;;;;;;;-145.03;100.00;76759.44;4989165;28;20247;-74
2023/03/09 03:57:32;;;;;;;13.70;7.13;;;;;;;-145.03;100.00;76761.44;5005299;28;20639;-73
2023/03/09 03:59:58;;;;;;;14.97;8.43;;;;;;;-145.03;100.00;76759.44;4990398;28;20543;-73
2023/03/09 04:02:25;;;;;;;17.70;8.90;;;;;;;-145.03;100.00;76757.47;4990423;28;20213;-73
2023/03/09 04:04:51;;;;;;;16.03;7.70;;;;;;;-145.03;100.00;76759.44;4992357;28;20203;-73
2023/03/09 04:07:18;;;;;;;14.37;8.23;;;;;;;-145.03;100.00;76755.47;4994406;28;20308;-73
2023/03/09 04:09:44;;;;;;;13.90;7.70;;;;;;;-145.03;100.00;76763.44;5011256;28;20479;-73
2023/03/09 04:12:13;;;;;;;13.67;7.90;;;;;;;-145.03;100.00;76759.44;4990011;28;20192;-73
2023/03/09 04:14:42;;;;;;;14.97;8.43;;;;;;;-145.03;100.00;76755.47;5006946;28;20210;-73
2023/03/09 04:17:09;;;;;;;13.50;7.07;;;;;;;-145.03;100.00;76753.47;5005865;28;20212;-73
2023/03/09 04:19:36;;;;;;;12.03;7.23;;;;;;;-145.03;100.00;76755.47;4994953;28;20236;-74
2023/03/09 04:22:02;;;;;;;12.70;8.17;;;;;;;-145.03;100.00;76743.47;5006285;28;20255;-73
2023/03/09 04:24:30;;;;;;;12.73;7.20;;;;;;;-145.03;100.00;76749.47;5001916;28;20232;-73
2023/03/09 04:26:58;;;;;;;15.87;8.73;;;;;;;-145.03;100.00;76747.47;4990419;28;20350;-73
2023/03/09 04:29:58;;;;;;;26.80;13.93;;;;;;;-145.03;100.00;76741.50;5004272;28;20200;-73
2023/03/09 04:32:30;;;;;;;18.17;11.97;;;;;;;-145.03;100.00;76737.50;4990833;28;20333;-72
2023/03/09 04:35:02;;;;;;;11.47;7.50;;;;;;;-145.03;100.00;76737.50;5000444;28;20234;-72
2023/03/09 04:37:29;;;;;;;15.57;8.80;;;;;;;-145.03;100.00;76737.50;4994021;28;20227;-73
2023/03/09 04:39:57;;;;;;;13.93;7.77;;;;;;;-145.03;100.00;76731.50;5005633;28;20200;-73
2023/03/09 04:42:23;;;;;;;14.40;7.53;;;;;;;-145.03;100.00;76735.50;4988789;28;20842;-73
2023/03/09 04:44:50;;;;;;;14.43;7.73;;;;;;;-145.03;100.00;76733.50;5008114;28;20588;-75
2023/03/09 04:47:18;;;;;;;13.67;7.57;;;;;;;-145.03;100.00;76731.50;4992075;28;20213;-73
2023/03/09 04:49:44;;;;;;;11.43;7.33;;;;;;;-145.03;100.00;76733.50;4994601;28;20538;-73
2023/03/09 04:52:12;;;;;;;14.87;7.03;;;;;;;-145.03;100.00;76737.50;5007271;28;20208;-74
2023/03/09 04:54:39;;;;;;;15.70;8.33;;;;;;;-145.03;100.00;76737.50;5007602;28;20274;-73
2023/03/09 04:57:05;;;;;;;13.50;7.83;;;;;;;-145.03;100.00;76745.47;5004199;28;20571;-73
2023/03/09 04:59:32;;;;;;;14.30;7.67;;;;;;;-145.03;100.00;76743.47;4994290;28;20200;-73
2023/03/09 05:02:00;;;;;;;15.40;7.30;;;;;;;-145.03;100.00;76735.50;4988832;28;20197;-73
2023/03/09 05:04:37;;;;;;;13.03;7.13;;;;;;;-145.03;100.00;76739.50;5008525;28;20663;-73
2023/03/09 05:07:05;;;;;;;16.63;7.80;;;;;;;-145.03;100.00;76733.50;4989941;28;20226;-73
2023/03/09 05:09:31;;;;;;;12.47;7.07;;;;;;;-145.03;100.00;76739.50;5000717;28;20691;-73
2023/03/09 05:11:58;;;;;;;12.73;7.70;;;;;;;-145.03;100.00;76737.50;4986364;28;20204;-73
2023/03/09 05:14:24;;;;;;;15.17;7.87;;;;;;;-145.03;100.00;76731.50;5005235;28;20220;-73
2023/03/09 05:16:53;;;;;;;25.50;14.63;;;;;;;-145.03;100.00;76731.50;4984299;28;20295;-73
2023/03/09 05:19:22;;;;;;;30.03;15.57;;;;;;;-145.03;100.00;76731.50;4985135;28;20229;-74
2023/03/09 05:21:51;;;;;;;19.07;11.10;;;;;;;-145.03;100.00;76727.53;4983652;28;20209;-73
2023/03/09 05:24:18;;;;;;;13.87;7.87;;;;;;;-145.03;100.00;76735.50;5004085;28;20284;-73
2023/03/09 05:26:44;;;;;;;12.17;7.17;;;;;;;-145.03;100.00;76731.50;4983730;28;20220;-73
2023/03/09 05:29:13;;;;;;;12.97;7.53;;;;;;;-145.03;100.00;76733.50;5000376;28;20203;-73
2023/03/09 05:31:41;;;;;;;13.43;8.23;;;;;;;-145.03;100.00;76735.50;4994280;28;20239;-73
2023/03/09 05:34:07;;;;;;;13.83;7.60;;;;;;;-145.03;100.00;76731.50;5003249;28;20752;-74
2023/03/09 05:36:34;;;;;;;13.57;8.77;;;;;;;-145.03;100.00;76737.50;4990522;28;20978;-73
2023/03/09 05:39:09;;;;;;;12.63;6.93;;;;;;;-145.03;100.00;76739.50;4982600;28;20282;-73
2023/03/09 05:41:36;;;;;;;12.37;7.00;;;;;;;-145.03;100.00;76735.50;4981911;28;20685;-74
2023/03/09 05:44:12;;;;;;;15.80;8.47;;;;;;;-145.03;100.00;76735.50;4988380;28;20203;-73
2023/03/09 05:46:39;;;;;;;15.47;8.27;;;;;;;-145.03;100.00;76745.47;5004489;28;20224;-73
2023/03/09 05:49:06;;;;;;;17.27;8.73;;;;;;;-145.03;100.00;76737.50;4988105;28;20649;-73
2023/03/09 05:51:33;;;;;;;13.03;7.33;;;;;;;-145.03;100.00;76743.47;5006619;28;20197;-74
2023/03/09 05:53:59;;;;;;;17.20;8.60;;;;;;;-145.03;100.00;76735.50;4984964;28;20193;-74
2023/03/09 05:56:28;;;;;;;13.03;7.90;;;;;;;-145.03;100.00;76735.50;4985154;28;20320;-74
2023/03/09 05:58:59;;;;;;;12.40;7.10;;;;;;;-145.03;100.00;76737.50;4987558;28;20197;-74
2023/03/09 06:01:28;;;;;;;13.73;8.07;;;;;;;-145.03;100.00;76741.50;4988296;28;20196;-73
2023/03/09 06:04:02;;;;;;;13.47;7.10;;;;;;;-145.03;100.00;76737.50;4988433;28;20285;-73
2023/03/09 06:06:31;;;;;;;15.03;7.80;;;;;;;-145.03;100.00;76737.50;4985547;28;20282;-73
2023/03/09 06:08:57;;;;;;;14.93;8.47;;;;;;;-145.03;100.00;76739.50;4998553;28;20197;-74
2023/03/09 06:11:25;;;;;;;14.47;8.47;;;;;;;-145.03;100.00;76737.50;4990184;28;20205;-73
2023/03/09 06:13:54;;;;;;;14.47;8.70;;;;;;;-145.03;100.00;76735.50;5006311;28;20225;-74
2023/03/09 06:16:24;;;;;;;15.53;8.67;;;;;;;-145.03;100.00;76747.47;4986934;28;20323;-73
2023/03/09 06:18:52;;;;;;;19.27;10.13;;;;;;;-145.03;100.00;76747.47;4990916;28;20200;-74
2023/03/09 06:21:18;;;;;;;14.37;8.10;;;;;;;-145.03;100.00;76747.47;4991858;28;20204;-73
2023/03/09 06:23:46;;;;;;;17.83;9.70;;;;;;;-145.03;100.00;76751.47;5007754;28;20666;-73
2023/03/09 06:26:14;;;;;;;20.07;9.00;;;;;;;-145.03;100.00;76751.47;4990217;28;20320;-73
2023/03/09 06:28:48;;;;;;;16.13;9.30;;;;;;;-145.03;100.00;76747.47;5001009;28;20238;-73
2023/03/09 06:31:17;;;;;;;19.20;9.33;;;;;;;-145.03;100.00;76757.47;4979338;28;20199;-73
2023/03/09 06:33:47;;;;;;;18.13;9.50;;;;;;;-145.03;100.00;76759.44;4999135;28;20226;-73
2023/03/09 06:36:18;;;;;;;15.13;8.97;;;;;;;-145.03;100.00;76761.44;4989255;28;20224;-73
2023/03/09 06:38:47;;;;;;;16.23;9.33;;;;;;;-145.03;100.00;76767.44;5008013;28;20291;-74
2023/03/09 06:41:14;;;;;;;17.57;10.17;;;;;;;-145.03;100.00;76767.44;4990427;28;20739;-73
2023/03/09 06:43:42;;;;;;;15.70;9.43;;;;;;;-145.03;100.00;76775.41;5009031;28;20197;-73
2023/03/09 06:46:09;;;;;;;16.70;9.73;;;;;;;-145.03;100.00;76773.44;5002914;28;20201;-73
2023/03/09 06:48:38;;;;;;;19.40;9.43;;;;;;;-145.03;100.00;76775.41;5006598;28;20194;-74
2023/03/09 06:51:05;;;;;;;16.50;9.20;;;;;;;-145.03;100.00;76781.41;4997298;28;20221;-73
2023/03/09 06:53:32;;;;;;;16.87;8.73;;;;;;;-145.03;100.00;76789.41;4993371;28;20200;-74
2023/03/09 06:56:05;;;;;;;16.50;9.20;;;;;;;-145.03;100.00;76789.41;4990876;28;20306;-74
2023/03/09 06:58:34;;;;;;;17.83;9.40;;;;;;;-145.03;100.00;76787.41;5049127;23;20355;-74
2023/03/09 07:01:06;;;;;;;15.77;9.03;;;;;;;-145.03;100.00;76793.38;5021127;28;20267;-74
2023/03/09 07:03:33;;;;;;;18.37;9.77;;;;;;;-145.03;100.00;76795.38;5023396;28;20194;-74
2023/03/09 07:06:01;;;;;;;18.50;9.27;;;;;;;-145.03;100.00;76795.38;5026600;28;20753;-75
2023/03/09 07:08:27;;;;;;;17.03;9.20;;;;;;;-145.03;100.00;76799.38;5030592;28;20210;-75
2023/03/09 07:10:54;;;;;;;16.60;8.57;;;;;;;-145.03;100.00;76803.38;5042776;28;20209;-75
2023/03/09 07:13:20;;;;;;;15.97;8.97;;;;;;;-145.03;100.00;76809.34;5039813;28;20200;-75
2023/03/09 07:15:47;;;;;;;19.03;9.90;;;;;;;-145.03;100.00;76807.34;5043489;28;20210;-74
2023/03/09 07:18:13;;;;;;;15.00;9.23;;;;;;;-145.03;100.00;76817.34;5043793;28;20220;-74
2023/03/09 07:20:40;;;;;;;19.00;9.77;;;;;;;-145.03;100.00;76815.34;5045795;28;20205;-74
2023/03/09 07:23:08;;;;;;;17.60;10.30;;;;;;;-145.03;100.00;76819.34;5043533;28;20202;-75
2023/03/09 07:25:35;;;;;;;17.87;8.80;;;;;;;-145.03;100.00;76825.31;5045937;28;20194;-75
2023/03/09 07:28:03;;;;;;;17.77;9.93;;;;;;;-145.03;100.00;76827.31;5044077;28;20281;-75
2023/03/09 07:30:30;;;;;;;18.37;9.83;;;;;;;-145.03;100.00;76827.31;5045898;28;20219;-73
2023/03/09 07:32:58;;;;;;;16.10;8.33;;;;;;;-145.03;100.00;76825.31;5046611;28;20226;-74
2023/03/09 07:35:24;;;;;;;16.17;8.90;;;;;;;-145.03;100.00;76837.31;5038265;28;20609;-74
2023/03/09 07:37:51;;;;;;;20.60;9.83;;;;;;;-145.03;100.00;76833.31;5043286;28;20208;-74
2023/03/09 07:40:20;;;;;;;17.50;9.10;;;;;;;-145.03;100.00;76843.28;5045888;28;20205;-74
2023/03/09 07:42:52;;;;;;;19.03;9.77;;;;;;;-145.03;100.00;76839.28;5043539;28;20335;-74
2023/03/09 07:45:39;;;;;;;18.50;9.20;;;;;;;-145.03;100.00;76833.31;5046972;28;20337;-74
2023/03/09 07:48:05;;;;;;;17.47;9.40;;;;;;;-145.03;100.00;76839.28;5046194;28;20231;-74
2023/03/09 07:50:32;;;;;;;18.13;9.07;;;;;;;-145.03;100.00;76827.31;5027661;28;20204;-75
2023/03/09 07:52:58;;;;;;;17.47;8.90;;;;;;;-145.03;100.00;76811.34;5041972;28;20200;-75
2023/03/09 07:55:27;;;;;;;17.73;8.73;;;;;;;-145.03;100.00;76805.38;5023765;28;20227;-75
2023/03/09 07:57:53;;;;;;;15.97;8.53;;;;;;;-145.03;100.00;76797.38;5044415;28;20255;-75
2023/03/09 08:00:22;;;;;;;15.40;9.03;;;;;;;-145.03;100.00;76787.41;5047287;28;20660;-74
2023/03/09 08:02:49;;;;;;;14.87;8.73;;;;;;;-145.03;100.00;76781.41;5044766;28;20257;-75
2023/03/09 08:05:16;;;;;;;17.13;9.43;;;;;;;-145.03;100.00;76763.44;5042543;28;20196;-72
2023/03/09 08:07:43;;;;;;;16.17;9.23;;;;;;;-145.03;100.00;76759.44;5039234;28;20224;-75
2023/03/09 08:10:10;;;;;;;21.27;10.23;;;;;;;-145.03;100.00;76781.41;5046569;28;20282;-74
2023/03/09 08:12:38;;;;;;;18.67;9.57;;;;;;;-145.03;100.00;76803.38;5044032;28;20206;-74
2023/03/09 08:15:06;;;;;;;16.43;8.53;;;;;;;-145.03;100.00;76819.34;5044838;28;20286;-75
2023/03/09 08:17:34;;;;;;;19.30;9.53;;;;;;;-145.03;100.00;76813.34;5047338;28;20229;-74
2023/03/09 08:20:00;;;;;;;21.50;9.83;;;;;;;-145.03;100.00;76825.31;5047201;28;20199;-74
2023/03/09 08:22:26;;;;;;;16.90;9.33;;;;;;;-145.03;100.00;76827.31;5040968;28;20213;-75
2023/03/09 08:24:53;;;;;;;14.70;8.50;;;;;;;-145.03;100.00;76829.31;5042347;28;20195;-74
2023/03/09 08:27:19;;;;;;;19.50;9.50;;;;;;;-145.03;100.00;76843.28;5031566;28;20317;-74
2023/03/09 08:29:47;;;;;;;17.83;9.70;;;;;;;-145.03;100.00;76851.28;5041769;28;20675;-74
2023/03/09 08:32:14;;;;;;;14.80;8.57;;;;;;;-145.03;100.00;76857.25;5046801;28;20635;-74
2023/03/09 08:34:40;;;;;;;14.57;8.97;;;;;;;-145.03;100.00;76849.28;5040516;28;20214;-75
2023/03/09 08:37:07;;;;;;;21.67;10.30;;;;;;;-145.03;100.00;76851.28;5044696;28;20219;-74
2023/03/09 08:39:33;;;;;;;15.90;9.20;;;;;;;-145.03;100.00;76847.28;5045631;28;20195;-75
2023/03/09 08:41:59;;;;;;;19.10;10.20;;;;;;;-145.03;100.00;76859.25;5044456;28;20229;-74
2023/03/09 08:44:26;;;;;;;18.20;10.03;;;;;;;-145.03;100.00;76869.25;5040955;28;20207;-74
2023/03/09 08:46:55;;;;;;;19.67;10.27;;;;;;;-145.03;100.00;76881.22;5044722;28;20211;-74
2023/03/09 08:49:22;;;;;;;20.37;10.20;;;;;;;-145.03;100.00;76899.19;5045702;28;20199;-75
2023/03/09 08:51:50;;;;;;;18.70;9.43;;;;;;;-145.03;100.00;76903.16;5039761;28;20567;-74
2023/03/09 08:54:16;;;;;;;21.33;10.33;;;;;;;-145.03;100.00;76897.19;5043656;28;20398;-75
2023/03/09 08:56:42;;;;;;;20.90;12.20;;;;;;;-145.03;100.00;76891.19;5043249;28;20249;-74
2023/03/09 08:59:10;;;;;;;22.57;10.90;;;;;;;-145.03;100.00;76871.22;5042712;28;20221;-75
2023/03/09 09:01:36;;;;;;;19.50;10.30;;;;;;;-145.03;100.00;76861.25;5025784;28;20222;-75
2023/03/09 09:04:05;;;;;;;17.40;10.03;;;;;;;-145.03;100.00;76873.22;5043829;28;20228;-74
2023/03/09 09:06:31;;;;;;;22.03;11.80;;;;;;;-145.03;100.00;76865.25;5044112;28;20740;-75
2023/03/09 09:08:57;;;;;;;22.20;11.73;;;;;;;-145.03;100.00;76861.25;5042629;28;20188;-75
2023/03/09 09:11:24;;;;;;;21.20;10.53;;;;;;;-145.03;100.00;76853.28;5042803;28;20204;-75
2023/03/09 09:13:52;;;;;;;19.93;10.30;;;;;;;-145.03;100.00;76849.28;5043411;28;20198;-73
2023/03/09 09:16:18;;;;;;;22.07;11.70;;;;;;;-145.03;100.00;76855.25;5043308;28;20227;-74
2023/03/09 09:18:45;;;;;;;22.63;11.33;;;;;;;-145.03;100.00;76859.25;5047856;28;20305;-75
2023/03/09 09:21:15;;;;;;;20.93;11.50;;;;;;;-145.03;100.00;76853.28;5022431;28;20286;-74
2023/03/09 09:23:43;;;;;;;22.80;11.23;;;;;;;-145.03;100.00;76843.28;5044062;28;20198;-75
2023/03/09 09:26:12;;;;;;;25.23;11.27;;;;;;;-145.03;100.00;76833.31;5044142;28;20192;-74
2023/03/09 09:28:38;;;;;;;27.47;12.93;;;;;;;-145.03;100.00;76843.28;5040655;28;20212;-75
2023/03/09 09:31:05;;;;;;;21.57;12.23;;;;;;;-145.03;100.00;76833.31;5043478;28;20206;-75
2023/03/09 09:33:36;;;;;;;23.90;12.50;;;;;;;-145.03;100.00;76841.28;5027121;28;20204;-75
2023/03/09 09:36:06;;;;;;;26.37;12.80;;;;;;;-145.03;100.00;76833.31;5041862;28;20656;-74
2023/03/09 09:38:34;;;;;;;25.93;13.30;;;;;;;-145.03;100.00;76825.31;5039469;28;20238;-74
2023/03/09 09:41:05;;;;;;;25.40;13.73;;;;;;;-145.03;100.00;76823.31;5045032;28;20727;-73
2023/03/09 09:43:32;;;;;;;23.93;13.47;;;;;;;-145.03;100.00;76817.34;5041961;28;20555;-74
2023/03/09 09:46:02;;;;;;;22.47;11.57;;;;;;;-145.03;100.00;76821.34;5029006;28;20195;-74
2023/03/09 09:48:30;;;;;;;25.03;13.97;;;;;;;-145.03;100.00;76839.28;5041700;28;20218;-75
2023/03/09 09:51:11;;;;;;;30.73;13.00;;;;;;;-145.03;100.00;76849.28;5026733;28;20208;-74
2023/03/09 09:53:50;;;;;;;28.07;14.10;;;;;;;-145.03;100.00;76845.28;5036030;28;20587;-74
2023/03/09 09:56:22;;;;;;;22.20;12.47;;;;;;;-145.03;100.00;76855.25;5038987;28;20216;-75
2023/03/09 09:58:54;;;;;;;23.77;12.63;;;;;;;-145.03;100.00;76869.25;5045075;28;20832;-75
2023/03/09 10:01:24;;;;;;;26.17;12.70;;;;;;;-145.03;100.00;76863.25;5040689;28;20207;-75
2023/03/09 10:03:54;;;;;;;22.07;11.73;;;;;;;-145.03;100.00;76883.22;5045800;28;20576;-75
2023/03/09 10:06:22;;;;;;;24.00;13.33;;;;;;;-145.03;100.00;76895.19;5046227;28;20195;-74
2023/03/09 10:08:54;;;;;;;22.80;12.33;;;;;;;-145.03;100.00;76897.19;5042246;28;20214;-75
2023/03/09 10:11:24;;;;;;;23.87;12.27;;;;;;;-145.03;100.00;76899.19;5043880;28;20203;-75
2023/03/09 10:13:56;;;;;;;22.47;13.23;;;;;;;-145.03;100.00;76895.19;5045438;28;20652;-75
2023/03/09 10:16:26;;;;;;;21.87;12.00;;;;;;;-145.03;100.00;76915.16;5046415;28;20265;-75
2023/03/09 10:18:56;;;;;;;25.57;12.33;;;;;;;-145.03;100.00;76921.13;5043578;28;20679;-75
2023/03/09 10:21:26;;;;;;;23.60;12.60;;;;;;;-145.03;100.00;76929.13;5044728;28;20522;-74
2023/03/09 10:23:58;;;;;;;22.80;12.50;;;;;;;-145.03;100.00;76945.09;5044648;28;20212;-75
2023/03/09 10:26:34;;;;;;;22.20;12.50;;;;;;;-145.03;100.00;76935.13;5044663;28;20245;-75
2023/03/09 10:29:04;;;;;;;22.30;12.80;;;;;;;-145.03;100.00;76945.09;5042514;28;20651;-74
2023/03/09 10:31:38;;;;;;;20.40;11.43;;;;;;;-145.03;100.00;76939.09;5027748;28;20576;-74
2023/03/09 10:34:14;;;;;;;23.67;12.60;;;;;;;-145.03;100.00;76937.09;5041946;28;20242;-75
2023/03/09 10:36:47;;;;;;;21.87;12.33;;;;;;;-145.03;100.00;76939.09;5040119;28;20214;-75
2023/03/09 10:39:17;;;;;;;21.63;12.27;;;;;;;-145.03;100.00;76937.09;5026897;28;20286;-74
2023/03/09 10:41:44;;;;;;;24.33;13.40;;;;;;;-145.03;100.00;76943.09;5042223;28;20208;-75
2023/03/09 10:44:15;;;;;;;22.77;12.17;;;;;;;-145.03;100.00;76941.09;5043371;28;20282;-73
2023/03/09 10:46:55;;;;;;;22.70;11.97;;;;;;;-145.03;100.00;76935.13;5036807;28;20188;-75
2023/03/09 10:49:21;;;;;;;21.37;12.00;;;;;;;-145.03;100.00;76927.13;5042463;28;20195;-76
2023/03/09 10:51:58;;;;;;;21.07;11.63;;;;;;;-145.03;100.00;76933.13;5038112;28;20562;-76
2023/03/09 10:54:29;;;;;;;22.33;11.97;;;;;;;-145.03;100.00;76927.13;5038941;28;20207;-74
2023/03/09 10:56:56;;;;;;;27.07;13.50;;;;;;;-145.03;100.00;76921.13;5045602;28;20743;-75
2023/03/09 10:59:24;;;;;;;21.87;12.87;;;;;;;-145.03;100.00;76913.16;5044851;28;20671;-75
2023/03/09 11:01:53;;;;;;;24.87;13.77;;;;;;;-145.03;100.00;76901.19;5045654;28;20845;-75
2023/03/09 11:04:38;;;;;;;23.93;12.87;;;;;;;-145.03;100.00;76911.16;5041345;28;20643;-75
2023/03/09 11:07:09;;;;;;;26.43;12.60;;;;;;;-145.03;100.00;76919.13;5044259;28;20224;-76